sensor_id;sensor_type;location;lat;lon;timestamp;P1;durP1;ratioP1;P2;durP2;ratioP2
60038;SDS011;45916;52.734;6.544;2022-12-19T00:01:18;46.15;;;31.67;;
60038;SDS011;45916;52.734;6.544;2022-12-19T00:03:56;44.97;;;33.22;;
60038;SDS011;45916;52.734;6.544;2022-12-19T00:06:24;47.83;;;33.73;;
60038;SDS011;45916;52.734;6.544;2022-12-19T00:08:51;47.50;;;32.65;;
60038;SDS011;45916;52.734;6.544;2022-12-19T00:11:18;49.97;;;34.22;;
60038;SDS011;45916;52.734;6.544;2022-12-19T00:13:45;46.80;;;33.60;;
60038;SDS011;45916;52.734;6.544;2022-12-19T00:16:13;47.00;;;33.72;;
60038;SDS011;45916;52.734;6.544;2022-12-19T00:18:40;51.58;;;35.60;;
60038;SDS011;45916;52.734;6.544;2022-12-19T00:21:08;46.60;;;33.55;;
60038;SDS011;45916;52.734;6.544;2022-12-19T00:23:35;51.67;;;34.47;;
60038;SDS011;45916;52.734;6.544;2022-12-19T00:28:42;48.63;;;33.97;;
60038;SDS011;45916;52.734;6.544;2022-12-19T00:31:09;51.22;;;34.75;;
60038;SDS011;45916;52.734;6.544;2022-12-19T00:33:35;48.42;;;34.78;;
60038;SDS011;45916;52.734;6.544;2022-12-19T00:36:02;44.40;;;30.95;;
60038;SDS011;45916;52.734;6.544;2022-12-19T00:38:30;45.58;;;31.58;;
60038;SDS011;45916;52.734;6.544;2022-12-19T00:41:06;47.03;;;33.83;;
60038;SDS011;45916;52.734;6.544;2022-12-19T00:43:31;45.78;;;32.53;;
60038;SDS011;45916;52.734;6.544;2022-12-19T00:45:57;45.67;;;32.10;;
60038;SDS011;45916;52.734;6.544;2022-12-19T00:48:25;49.55;;;35.13;;
60038;SDS011;45916;52.734;6.544;2022-12-19T00:50:57;51.17;;;32.42;;
60038;SDS011;45916;52.734;6.544;2022-12-19T00:53:26;47.35;;;30.63;;
60038;SDS011;45916;52.734;6.544;2022-12-19T00:55:53;47.30;;;32.30;;
60038;SDS011;45916;52.734;6.544;2022-12-19T00:58:19;45.10;;;32.97;;
60038;SDS011;45916;52.734;6.544;2022-12-19T01:00:45;47.22;;;31.52;;
60038;SDS011;45916;52.734;6.544;2022-12-19T01:03:10;47.72;;;32.53;;
60038;SDS011;45916;52.734;6.544;2022-12-19T01:05:36;47.10;;;33.22;;
60038;SDS011;45916;52.734;6.544;2022-12-19T01:08:02;48.50;;;32.97;;
60038;SDS011;45916;52.734;6.544;2022-12-19T01:10:27;43.85;;;30.77;;
60038;SDS011;45916;52.734;6.544;2022-12-19T01:12:53;43.22;;;31.38;;
60038;SDS011;45916;52.734;6.544;2022-12-19T01:15:19;47.03;;;31.83;;
60038;SDS011;45916;52.734;6.544;2022-12-19T01:17:45;48.22;;;32.38;;
60038;SDS011;45916;52.734;6.544;2022-12-19T01:20:13;48.03;;;32.00;;
60038;SDS011;45916;52.734;6.544;2022-12-19T01:25:07;44.33;;;31.98;;
60038;SDS011;45916;52.734;6.544;2022-12-19T01:27:33;44.70;;;31.33;;
60038;SDS011;45916;52.734;6.544;2022-12-19T01:29:59;45.75;;;32.80;;
60038;SDS011;45916;52.734;6.544;2022-12-19T01:32:24;44.83;;;33.00;;
60038;SDS011;45916;52.734;6.544;2022-12-19T01:34:50;46.45;;;32.83;;
60038;SDS011;45916;52.734;6.544;2022-12-19T01:37:16;49.95;;;34.97;;
60038;SDS011;45916;52.734;6.544;2022-12-19T01:39:42;47.85;;;32.22;;
60038;SDS011;45916;52.734;6.544;2022-12-19T01:42:14;51.25;;;33.80;;
60038;SDS011;45916;52.734;6.544;2022-12-19T01:47:30;49.50;;;30.73;;
60038;SDS011;45916;52.734;6.544;2022-12-19T01:50:03;44.55;;;32.90;;
60038;SDS011;45916;52.734;6.544;2022-12-19T01:52:29;48.28;;;32.92;;
60038;SDS011;45916;52.734;6.544;2022-12-19T01:54:55;45.30;;;30.92;;
60038;SDS011;45916;52.734;6.544;2022-12-19T01:57:21;51.67;;;35.67;;
60038;SDS011;45916;52.734;6.544;2022-12-19T01:59:48;47.17;;;33.63;;
60038;SDS011;45916;52.734;6.544;2022-12-19T02:02:27;45.72;;;32.88;;
60038;SDS011;45916;52.734;6.544;2022-12-19T02:04:57;53.13;;;35.28;;
60038;SDS011;45916;52.734;6.544;2022-12-19T02:07:23;49.70;;;34.88;;
60038;SDS011;45916;52.734;6.544;2022-12-19T02:09:54;46.73;;;30.53;;
60038;SDS011;45916;52.734;6.544;2022-12-19T02:12:21;56.08;;;37.58;;
60038;SDS011;45916;52.734;6.544;2022-12-19T02:14:49;52.03;;;36.45;;
60038;SDS011;45916;52.734;6.544;2022-12-19T02:36:14;64.22;;;44.40;;
60038;SDS011;45916;52.734;6.544;2022-12-19T02:43:46;70.40;;;44.95;;
60038;SDS011;45916;52.734;6.544;2022-12-19T02:46:14;71.13;;;46.88;;
60038;SDS011;45916;52.734;6.544;2022-12-19T02:48:40;71.03;;;44.78;;
60038;SDS011;45916;52.734;6.544;2022-12-19T02:51:07;60.33;;;42.20;;
60038;SDS011;45916;52.734;6.544;2022-12-19T02:53:33;71.05;;;46.95;;
60038;SDS011;45916;52.734;6.544;2022-12-19T03:04:29;72.97;;;46.63;;
60038;SDS011;45916;52.734;6.544;2022-12-19T03:10:12;70.88;;;47.20;;
60038;SDS011;45916;52.734;6.544;2022-12-19T03:12:59;71.30;;;45.90;;
60038;SDS011;45916;52.734;6.544;2022-12-19T03:15:31;76.68;;;48.80;;
60038;SDS011;45916;52.734;6.544;2022-12-19T03:17:58;59.33;;;37.40;;
60038;SDS011;45916;52.734;6.544;2022-12-19T03:20:30;79.07;;;47.25;;
60038;SDS011;45916;52.734;6.544;2022-12-19T03:23:17;70.28;;;45.95;;
60038;SDS011;45916;52.734;6.544;2022-12-19T03:25:44;85.82;;;52.28;;
60038;SDS011;45916;52.734;6.544;2022-12-19T03:28:17;76.47;;;50.70;;
60038;SDS011;45916;52.734;6.544;2022-12-19T03:30:47;82.70;;;50.92;;
60038;SDS011;45916;52.734;6.544;2022-12-19T03:33:14;84.32;;;53.40;;
60038;SDS011;45916;52.734;6.544;2022-12-19T03:35:43;65.45;;;42.90;;
60038;SDS011;45916;52.734;6.544;2022-12-19T03:38:10;74.72;;;50.78;;
60038;SDS011;45916;52.734;6.544;2022-12-19T03:40:38;87.40;;;56.17;;
60038;SDS011;45916;52.734;6.544;2022-12-19T03:43:08;91.78;;;58.30;;
60038;SDS011;45916;52.734;6.544;2022-12-19T03:53:47;81.70;;;54.78;;
60038;SDS011;45916;52.734;6.544;2022-12-19T03:56:28;82.35;;;48.67;;
60038;SDS011;45916;52.734;6.544;2022-12-19T03:59:07;88.03;;;56.70;;
60038;SDS011;45916;52.734;6.544;2022-12-19T04:01:38;82.35;;;52.65;;
60038;SDS011;45916;52.734;6.544;2022-12-19T04:04:05;90.80;;;58.92;;
60038;SDS011;45916;52.734;6.544;2022-12-19T04:06:32;84.28;;;57.08;;
60038;SDS011;45916;52.734;6.544;2022-12-19T04:08:59;85.35;;;54.15;;
60038;SDS011;45916;52.734;6.544;2022-12-19T04:11:26;86.75;;;59.10;;
60038;SDS011;45916;52.734;6.544;2022-12-19T04:14:01;81.47;;;53.25;;
60038;SDS011;45916;52.734;6.544;2022-12-19T04:18:58;68.50;;;42.13;;
60038;SDS011;45916;52.734;6.544;2022-12-19T04:21:32;84.78;;;53.47;;
60038;SDS011;45916;52.734;6.544;2022-12-19T04:24:04;85.03;;;52.55;;
60038;SDS011;45916;52.734;6.544;2022-12-19T04:26:35;82.57;;;52.50;;
60038;SDS011;45916;52.734;6.544;2022-12-19T04:29:01;81.82;;;53.60;;
60038;SDS011;45916;52.734;6.544;2022-12-19T04:33:56;74.63;;;48.53;;
60038;SDS011;45916;52.734;6.544;2022-12-19T04:36:22;78.78;;;51.50;;
60038;SDS011;45916;52.734;6.544;2022-12-19T04:38:49;71.13;;;50.50;;
60038;SDS011;45916;52.734;6.544;2022-12-19T04:41:15;75.93;;;49.92;;
60038;SDS011;45916;52.734;6.544;2022-12-19T04:43:41;75.60;;;48.08;;
60038;SDS011;45916;52.734;6.544;2022-12-19T04:46:07;65.95;;;44.58;;
60038;SDS011;45916;52.734;6.544;2022-12-19T04:48:34;63.70;;;42.75;;
60038;SDS011;45916;52.734;6.544;2022-12-19T04:51:00;83.05;;;52.38;;
60038;SDS011;45916;52.734;6.544;2022-12-19T04:53:25;82.30;;;51.20;;
60038;SDS011;45916;52.734;6.544;2022-12-19T04:55:58;85.65;;;52.40;;
60038;SDS011;45916;52.734;6.544;2022-12-19T04:58:28;77.63;;;52.17;;
60038;SDS011;45916;52.734;6.544;2022-12-19T05:00:54;72.35;;;44.72;;
60038;SDS011;45916;52.734;6.544;2022-12-19T05:03:25;82.03;;;52.15;;
60038;SDS011;45916;52.734;6.544;2022-12-19T05:05:51;79.07;;;49.67;;
60038;SDS011;45916;52.734;6.544;2022-12-19T05:08:16;80.60;;;51.05;;
60038;SDS011;45916;52.734;6.544;2022-12-19T05:10:42;79.45;;;53.33;;
60038;SDS011;45916;52.734;6.544;2022-12-19T05:13:07;78.03;;;52.83;;
60038;SDS011;45916;52.734;6.544;2022-12-19T05:15:33;79.70;;;49.88;;
60038;SDS011;45916;52.734;6.544;2022-12-19T05:17:59;78.88;;;50.22;;
60038;SDS011;45916;52.734;6.544;2022-12-19T05:20:24;73.43;;;51.08;;
60038;SDS011;45916;52.734;6.544;2022-12-19T05:22:50;75.40;;;49.58;;
60038;SDS011;45916;52.734;6.544;2022-12-19T05:25:16;68.15;;;43.88;;
60038;SDS011;45916;52.734;6.544;2022-12-19T05:27:41;63.47;;;41.42;;
60038;SDS011;45916;52.734;6.544;2022-12-19T05:30:07;78.97;;;47.72;;
60038;SDS011;45916;52.734;6.544;2022-12-19T05:32:33;71.95;;;45.40;;
60038;SDS011;45916;52.734;6.544;2022-12-19T05:34:59;75.78;;;49.22;;
60038;SDS011;45916;52.734;6.544;2022-12-19T05:37:25;73.53;;;45.85;;
60038;SDS011;45916;52.734;6.544;2022-12-19T05:39:50;57.53;;;38.67;;
60038;SDS011;45916;52.734;6.544;2022-12-19T05:42:16;64.20;;;46.10;;
60038;SDS011;45916;52.734;6.544;2022-12-19T05:44:42;66.50;;;44.05;;
60038;SDS011;45916;52.734;6.544;2022-12-19T05:47:07;65.03;;;44.50;;
60038;SDS011;45916;52.734;6.544;2022-12-19T05:49:33;57.65;;;39.42;;
60038;SDS011;45916;52.734;6.544;2022-12-19T05:51:58;63.33;;;40.28;;
60038;SDS011;45916;52.734;6.544;2022-12-19T05:54:24;63.83;;;42.38;;
60038;SDS011;45916;52.734;6.544;2022-12-19T05:56:50;55.30;;;38.72;;
60038;SDS011;45916;52.734;6.544;2022-12-19T05:59:16;60.33;;;41.33;;
60038;SDS011;45916;52.734;6.544;2022-12-19T06:01:41;50.92;;;32.58;;
60038;SDS011;45916;52.734;6.544;2022-12-19T06:04:07;55.60;;;39.03;;
60038;SDS011;45916;52.734;6.544;2022-12-19T06:06:32;60.88;;;37.78;;
60038;SDS011;45916;52.734;6.544;2022-12-19T06:08:58;65.45;;;41.88;;
60038;SDS011;45916;52.734;6.544;2022-12-19T06:11:24;58.70;;;40.50;;
60038;SDS011;45916;52.734;6.544;2022-12-19T06:13:50;44.88;;;29.98;;
60038;SDS011;45916;52.734;6.544;2022-12-19T06:16:17;46.00;;;32.58;;
60038;SDS011;45916;52.734;6.544;2022-12-19T06:18:44;56.88;;;38.47;;
60038;SDS011;45916;52.734;6.544;2022-12-19T06:21:11;56.88;;;37.78;;
60038;SDS011;45916;52.734;6.544;2022-12-19T06:23:38;63.25;;;41.38;;
60038;SDS011;45916;52.734;6.544;2022-12-19T06:26:06;49.97;;;36.33;;
60038;SDS011;45916;52.734;6.544;2022-12-19T06:28:32;46.72;;;31.10;;
60038;SDS011;45916;52.734;6.544;2022-12-19T06:30:59;53.80;;;37.33;;
60038;SDS011;45916;52.734;6.544;2022-12-19T06:36:00;53.33;;;34.72;;
60038;SDS011;45916;52.734;6.544;2022-12-19T06:38:34;52.30;;;35.40;;
60038;SDS011;45916;52.734;6.544;2022-12-19T06:41:01;43.72;;;28.63;;
60038;SDS011;45916;52.734;6.544;2022-12-19T06:43:46;48.63;;;34.80;;
60038;SDS011;45916;52.734;6.544;2022-12-19T06:46:12;52.22;;;37.45;;
60038;SDS011;45916;52.734;6.544;2022-12-19T06:48:38;51.95;;;35.58;;
60038;SDS011;45916;52.734;6.544;2022-12-19T06:51:04;51.97;;;35.70;;
60038;SDS011;45916;52.734;6.544;2022-12-19T06:53:29;47.95;;;31.13;;
60038;SDS011;45916;52.734;6.544;2022-12-19T06:55:56;51.58;;;36.38;;
60038;SDS011;45916;52.734;6.544;2022-12-19T06:58:23;51.75;;;35.97;;
60038;SDS011;45916;52.734;6.544;2022-12-19T07:00:49;52.72;;;31.83;;
60038;SDS011;45916;52.734;6.544;2022-12-19T07:03:15;47.58;;;33.63;;
60038;SDS011;45916;52.734;6.544;2022-12-19T07:05:44;45.95;;;32.80;;
60038;SDS011;45916;52.734;6.544;2022-12-19T07:08:11;41.00;;;33.17;;
60038;SDS011;45916;52.734;6.544;2022-12-19T07:10:36;46.88;;;34.38;;
60038;SDS011;45916;52.734;6.544;2022-12-19T07:13:02;47.35;;;35.60;;
60038;SDS011;45916;52.734;6.544;2022-12-19T07:15:29;46.28;;;31.02;;
60038;SDS011;45916;52.734;6.544;2022-12-19T07:17:56;46.95;;;32.40;;
60038;SDS011;45916;52.734;6.544;2022-12-19T07:20:23;47.75;;;34.30;;
60038;SDS011;45916;52.734;6.544;2022-12-19T07:22:49;41.90;;;27.42;;
60038;SDS011;45916;52.734;6.544;2022-12-19T07:25:15;30.55;;;22.17;;
60038;SDS011;45916;52.734;6.544;2022-12-19T07:27:41;45.50;;;31.50;;
60038;SDS011;45916;52.734;6.544;2022-12-19T07:30:08;41.85;;;27.88;;
60038;SDS011;45916;52.734;6.544;2022-12-19T07:32:34;35.25;;;25.50;;
60038;SDS011;45916;52.734;6.544;2022-12-19T07:35:00;35.45;;;24.05;;
60038;SDS011;45916;52.734;6.544;2022-12-19T07:37:26;40.17;;;29.30;;
60038;SDS011;45916;52.734;6.544;2022-12-19T07:39:52;35.38;;;26.00;;
60038;SDS011;45916;52.734;6.544;2022-12-19T07:42:18;38.95;;;28.48;;
60038;SDS011;45916;52.734;6.544;2022-12-19T07:44:44;36.75;;;28.08;;
60038;SDS011;45916;52.734;6.544;2022-12-19T07:47:09;37.65;;;24.70;;
60038;SDS011;45916;52.734;6.544;2022-12-19T07:49:35;25.88;;;18.45;;
60038;SDS011;45916;52.734;6.544;2022-12-19T07:52:01;34.38;;;24.35;;
60038;SDS011;45916;52.734;6.544;2022-12-19T07:54:27;34.67;;;25.23;;
60038;SDS011;45916;52.734;6.544;2022-12-19T07:56:52;36.45;;;26.85;;
60038;SDS011;45916;52.734;6.544;2022-12-19T07:59:18;33.67;;;24.90;;
60038;SDS011;45916;52.734;6.544;2022-12-19T08:01:44;42.42;;;30.98;;
60038;SDS011;45916;52.734;6.544;2022-12-19T08:04:10;34.38;;;27.08;;
60038;SDS011;45916;52.734;6.544;2022-12-19T08:06:35;33.42;;;26.23;;
60038;SDS011;45916;52.734;6.544;2022-12-19T08:09:01;35.15;;;27.55;;
60038;SDS011;45916;52.734;6.544;2022-12-19T08:11:27;33.15;;;23.02;;
60038;SDS011;45916;52.734;6.544;2022-12-19T08:13:54;30.48;;;23.92;;
60038;SDS011;45916;52.734;6.544;2022-12-19T08:16:21;31.55;;;24.52;;
60038;SDS011;45916;52.734;6.544;2022-12-19T08:18:48;26.50;;;19.67;;
60038;SDS011;45916;52.734;6.544;2022-12-19T08:21:14;28.75;;;24.65;;
60038;SDS011;45916;52.734;6.544;2022-12-19T08:23:40;33.95;;;25.58;;
60038;SDS011;45916;52.734;6.544;2022-12-19T08:26:07;34.13;;;23.95;;
60038;SDS011;45916;52.734;6.544;2022-12-19T08:28:36;32.80;;;24.52;;
60038;SDS011;45916;52.734;6.544;2022-12-19T08:33:32;31.35;;;24.00;;
60038;SDS011;45916;52.734;6.544;2022-12-19T08:36:01;32.45;;;27.40;;
60038;SDS011;45916;52.734;6.544;2022-12-19T08:38:32;34.80;;;28.65;;
60038;SDS011;45916;52.734;6.544;2022-12-19T08:40:58;33.90;;;27.35;;
60038;SDS011;45916;52.734;6.544;2022-12-19T08:43:24;31.83;;;26.98;;
60038;SDS011;45916;52.734;6.544;2022-12-19T08:45:51;32.90;;;27.98;;
60038;SDS011;45916;52.734;6.544;2022-12-19T08:48:16;31.38;;;25.45;;
60038;SDS011;45916;52.734;6.544;2022-12-19T08:50:52;33.45;;;25.05;;
60038;SDS011;45916;52.734;6.544;2022-12-19T08:53:22;34.97;;;23.77;;
60038;SDS011;45916;52.734;6.544;2022-12-19T08:55:54;34.28;;;27.67;;
60038;SDS011;45916;52.734;6.544;2022-12-19T08:58:21;35.40;;;27.48;;
60038;SDS011;45916;52.734;6.544;2022-12-19T09:00:47;35.20;;;28.48;;
60038;SDS011;45916;52.734;6.544;2022-12-19T09:03:13;32.40;;;25.55;;
60038;SDS011;45916;52.734;6.544;2022-12-19T09:05:39;40.45;;;30.10;;
60038;SDS011;45916;52.734;6.544;2022-12-19T09:08:04;38.75;;;29.63;;
60038;SDS011;45916;52.734;6.544;2022-12-19T09:10:30;40.15;;;28.83;;
60038;SDS011;45916;52.734;6.544;2022-12-19T09:12:57;36.33;;;27.65;;
60038;SDS011;45916;52.734;6.544;2022-12-19T09:15:22;38.15;;;28.52;;
60038;SDS011;45916;52.734;6.544;2022-12-19T09:17:48;36.63;;;27.75;;
60038;SDS011;45916;52.734;6.544;2022-12-19T09:20:14;29.17;;;19.35;;
60038;SDS011;45916;52.734;6.544;2022-12-19T09:22:40;34.13;;;26.70;;
60038;SDS011;45916;52.734;6.544;2022-12-19T09:25:05;35.72;;;27.40;;
60038;SDS011;45916;52.734;6.544;2022-12-19T09:27:31;39.00;;;31.63;;
60038;SDS011;45916;52.734;6.544;2022-12-19T09:29:57;32.70;;;23.83;;
60038;SDS011;45916;52.734;6.544;2022-12-19T09:32:22;39.13;;;31.00;;
60038;SDS011;45916;52.734;6.544;2022-12-19T09:34:48;35.38;;;27.05;;
60038;SDS011;45916;52.734;6.544;2022-12-19T09:37:14;35.05;;;27.35;;
60038;SDS011;45916;52.734;6.544;2022-12-19T09:39:40;39.67;;;30.52;;
60038;SDS011;45916;52.734;6.544;2022-12-19T09:45:04;31.42;;;23.10;;
60038;SDS011;45916;52.734;6.544;2022-12-19T09:47:37;36.38;;;28.85;;
60038;SDS011;45916;52.734;6.544;2022-12-19T09:50:12;36.00;;;29.05;;
60038;SDS011;45916;52.734;6.544;2022-12-19T09:52:45;31.50;;;23.83;;
60038;SDS011;45916;52.734;6.544;2022-12-19T09:55:23;30.35;;;24.85;;
60038;SDS011;45916;52.734;6.544;2022-12-19T10:01:01;30.20;;;24.90;;
60038;SDS011;45916;52.734;6.544;2022-12-19T10:03:42;34.63;;;26.35;;
60038;SDS011;45916;52.734;6.544;2022-12-19T10:06:13;31.52;;;26.27;;
60038;SDS011;45916;52.734;6.544;2022-12-19T10:08:42;29.20;;;24.55;;
60038;SDS011;45916;52.734;6.544;2022-12-19T10:19:12;31.73;;;25.05;;
60038;SDS011;45916;52.734;6.544;2022-12-19T10:21:57;27.17;;;19.98;;
60038;SDS011;45916;52.734;6.544;2022-12-19T10:24:36;26.77;;;20.63;;
60038;SDS011;45916;52.734;6.544;2022-12-19T10:27:30;25.60;;;18.35;;
60038;SDS011;45916;52.734;6.544;2022-12-19T10:32:55;24.70;;;19.73;;
60038;SDS011;45916;52.734;6.544;2022-12-19T10:35:29;26.40;;;22.30;;
60038;SDS011;45916;52.734;6.544;2022-12-19T10:40:47;26.88;;;22.33;;
60038;SDS011;45916;52.734;6.544;2022-12-19T10:45:56;23.23;;;19.15;;
60038;SDS011;45916;52.734;6.544;2022-12-19T10:48:24;24.35;;;19.52;;
60038;SDS011;45916;52.734;6.544;2022-12-19T10:50:49;24.10;;;20.58;;
60038;SDS011;45916;52.734;6.544;2022-12-19T10:53:15;25.00;;;19.17;;
60038;SDS011;45916;52.734;6.544;2022-12-19T10:55:51;25.13;;;20.55;;
60038;SDS011;45916;52.734;6.544;2022-12-19T10:58:24;26.27;;;19.98;;
60038;SDS011;45916;52.734;6.544;2022-12-19T11:03:38;22.52;;;19.83;;
60038;SDS011;45916;52.734;6.544;2022-12-19T11:06:07;22.25;;;17.95;;
60038;SDS011;45916;52.734;6.544;2022-12-19T11:09:15;22.75;;;17.77;;
60038;SDS011;45916;52.734;6.544;2022-12-19T11:11:42;23.98;;;19.80;;
60038;SDS011;45916;52.734;6.544;2022-12-19T11:14:21;22.40;;;19.13;;
60038;SDS011;45916;52.734;6.544;2022-12-19T11:16:49;20.83;;;17.27;;
60038;SDS011;45916;52.734;6.544;2022-12-19T11:19:18;24.05;;;19.52;;
60038;SDS011;45916;52.734;6.544;2022-12-19T11:21:46;21.50;;;18.02;;
60038;SDS011;45916;52.734;6.544;2022-12-19T11:24:16;20.83;;;17.90;;
60038;SDS011;45916;52.734;6.544;2022-12-19T11:26:50;20.40;;;18.15;;
60038;SDS011;45916;52.734;6.544;2022-12-19T11:32:01;21.55;;;18.90;;
60038;SDS011;45916;52.734;6.544;2022-12-19T11:34:27;21.58;;;18.17;;
60038;SDS011;45916;52.734;6.544;2022-12-19T11:37:12;18.67;;;16.20;;
60038;SDS011;45916;52.734;6.544;2022-12-19T11:40:00;22.25;;;18.38;;
60038;SDS011;45916;52.734;6.544;2022-12-19T11:42:36;20.85;;;18.52;;
60038;SDS011;45916;52.734;6.544;2022-12-19T11:48:14;23.02;;;17.83;;
60038;SDS011;45916;52.734;6.544;2022-12-19T11:50:49;18.85;;;16.25;;
60038;SDS011;45916;52.734;6.544;2022-12-19T11:53:27;17.77;;;14.73;;
60038;SDS011;45916;52.734;6.544;2022-12-19T11:58:29;20.00;;;17.80;;
60038;SDS011;45916;52.734;6.544;2022-12-19T12:01:08;20.27;;;18.00;;
60038;SDS011;45916;52.734;6.544;2022-12-19T12:04:04;18.95;;;16.98;;
60038;SDS011;45916;52.734;6.544;2022-12-19T12:06:49;19.17;;;17.02;;
60038;SDS011;45916;52.734;6.544;2022-12-19T12:09:26;20.48;;;17.23;;
60038;SDS011;45916;52.734;6.544;2022-12-19T12:12:23;22.63;;;18.15;;
60038;SDS011;45916;52.734;6.544;2022-12-19T12:30:52;19.80;;;17.65;;
60038;SDS011;45916;52.734;6.544;2022-12-19T12:33:44;20.10;;;16.95;;
60038;SDS011;45916;52.734;6.544;2022-12-19T12:39:11;21.60;;;17.55;;
60038;SDS011;45916;52.734;6.544;2022-12-19T12:45:19;18.23;;;15.70;;
60038;SDS011;45916;52.734;6.544;2022-12-19T12:47:59;18.65;;;16.58;;
60038;SDS011;45916;52.734;6.544;2022-12-19T12:50:25;17.63;;;15.55;;
60038;SDS011;45916;52.734;6.544;2022-12-19T12:52:53;19.63;;;16.70;;
60038;SDS011;45916;52.734;6.544;2022-12-19T12:57:58;19.13;;;17.23;;
60038;SDS011;45916;52.734;6.544;2022-12-19T13:03:04;20.23;;;17.50;;
60038;SDS011;45916;52.734;6.544;2022-12-19T13:08:23;18.58;;;16.65;;
60038;SDS011;45916;52.734;6.544;2022-12-19T13:10:56;20.70;;;18.10;;
60038;SDS011;45916;52.734;6.544;2022-12-19T13:24:38;18.75;;;16.88;;
60038;SDS011;45916;52.734;6.544;2022-12-19T13:27:38;16.20;;;13.48;;
60038;SDS011;45916;52.734;6.544;2022-12-19T13:35:05;18.58;;;16.67;;
60038;SDS011;45916;52.734;6.544;2022-12-19T13:40:27;16.50;;;14.75;;
60038;SDS011;45916;52.734;6.544;2022-12-19T13:45:53;15.82;;;13.88;;
60038;SDS011;45916;52.734;6.544;2022-12-19T13:51:17;17.38;;;13.82;;
60038;SDS011;45916;52.734;6.544;2022-12-19T13:53:43;17.02;;;13.82;;
60038;SDS011;45916;52.734;6.544;2022-12-19T13:56:13;14.23;;;11.35;;
60038;SDS011;45916;52.734;6.544;2022-12-19T13:58:53;15.60;;;13.85;;
60038;SDS011;45916;52.734;6.544;2022-12-19T14:01:28;17.13;;;12.85;;
60038;SDS011;45916;52.734;6.544;2022-12-19T14:04:02;15.25;;;13.65;;
60038;SDS011;45916;52.734;6.544;2022-12-19T14:06:36;17.20;;;14.43;;
60038;SDS011;45916;52.734;6.544;2022-12-19T14:09:08;15.27;;;13.15;;
60038;SDS011;45916;52.734;6.544;2022-12-19T14:11:44;14.48;;;10.80;;
60038;SDS011;45916;52.734;6.544;2022-12-19T14:14:14;14.98;;;13.30;;
60038;SDS011;45916;52.734;6.544;2022-12-19T14:17:12;13.73;;;12.07;;
60038;SDS011;45916;52.734;6.544;2022-12-19T14:19:44;15.82;;;11.93;;
60038;SDS011;45916;52.734;6.544;2022-12-19T14:25:01;14.85;;;10.98;;
60038;SDS011;45916;52.734;6.544;2022-12-19T14:27:42;15.02;;;11.38;;
60038;SDS011;45916;52.734;6.544;2022-12-19T14:30:21;14.65;;;11.90;;
60038;SDS011;45916;52.734;6.544;2022-12-19T14:32:51;15.70;;;12.07;;
60038;SDS011;45916;52.734;6.544;2022-12-19T14:35:19;12.68;;;9.18;;
60038;SDS011;45916;52.734;6.544;2022-12-19T14:37:47;15.30;;;12.65;;
60038;SDS011;45916;52.734;6.544;2022-12-19T14:40:23;13.75;;;12.30;;
60038;SDS011;45916;52.734;6.544;2022-12-19T14:42:59;15.48;;;12.07;;
60038;SDS011;45916;52.734;6.544;2022-12-19T14:45:47;12.88;;;10.75;;
60038;SDS011;45916;52.734;6.544;2022-12-19T14:48:32;17.02;;;12.68;;
60038;SDS011;45916;52.734;6.544;2022-12-19T14:51:10;15.88;;;12.63;;
60038;SDS011;45916;52.734;6.544;2022-12-19T14:53:38;13.77;;;10.30;;
60038;SDS011;45916;52.734;6.544;2022-12-19T14:56:06;16.00;;;12.07;;
60038;SDS011;45916;52.734;6.544;2022-12-19T14:58:33;15.70;;;12.13;;
60038;SDS011;45916;52.734;6.544;2022-12-19T15:01:02;15.93;;;12.52;;
60038;SDS011;45916;52.734;6.544;2022-12-19T15:03:30;13.85;;;11.00;;
60038;SDS011;45916;52.734;6.544;2022-12-19T15:06:05;15.00;;;11.65;;
60038;SDS011;45916;52.734;6.544;2022-12-19T15:08:37;14.77;;;12.60;;
60038;SDS011;45916;52.734;6.544;2022-12-19T15:11:05;13.32;;;10.82;;
60038;SDS011;45916;52.734;6.544;2022-12-19T15:13:59;16.48;;;11.43;;
60038;SDS011;45916;52.734;6.544;2022-12-19T15:16:29;12.95;;;10.90;;
60038;SDS011;45916;52.734;6.544;2022-12-19T15:18:59;12.73;;;11.05;;
60038;SDS011;45916;52.734;6.544;2022-12-19T15:21:26;16.33;;;12.23;;
60038;SDS011;45916;52.734;6.544;2022-12-19T15:23:54;16.02;;;13.18;;
60038;SDS011;45916;52.734;6.544;2022-12-19T15:26:25;15.35;;;12.00;;
60038;SDS011;45916;52.734;6.544;2022-12-19T15:28:52;14.93;;;12.30;;
60038;SDS011;45916;52.734;6.544;2022-12-19T15:34:21;15.00;;;12.52;;
60038;SDS011;45916;52.734;6.544;2022-12-19T15:36:50;16.85;;;11.57;;
60038;SDS011;45916;52.734;6.544;2022-12-19T15:39:19;14.05;;;12.10;;
60038;SDS011;45916;52.734;6.544;2022-12-19T15:41:46;14.43;;;12.85;;
60038;SDS011;45916;52.734;6.544;2022-12-19T15:46:52;15.98;;;12.27;;
60038;SDS011;45916;52.734;6.544;2022-12-19T15:49:20;17.48;;;12.77;;
60038;SDS011;45916;52.734;6.544;2022-12-19T15:51:46;13.70;;;12.20;;
60038;SDS011;45916;52.734;6.544;2022-12-19T15:54:13;15.15;;;12.25;;
60038;SDS011;45916;52.734;6.544;2022-12-19T15:56:40;13.35;;;11.50;;
60038;SDS011;45916;52.734;6.544;2022-12-19T16:01:54;14.65;;;12.85;;
60038;SDS011;45916;52.734;6.544;2022-12-19T16:04:21;14.68;;;11.65;;
60038;SDS011;45916;52.734;6.544;2022-12-19T16:06:49;15.73;;;11.18;;
60038;SDS011;45916;52.734;6.544;2022-12-19T16:09:19;14.80;;;11.50;;
60038;SDS011;45916;52.734;6.544;2022-12-19T16:11:47;15.02;;;11.90;;
60038;SDS011;45916;52.734;6.544;2022-12-19T16:14:14;16.40;;;12.57;;
60038;SDS011;45916;52.734;6.544;2022-12-19T16:16:40;17.85;;;13.23;;
60038;SDS011;45916;52.734;6.544;2022-12-19T16:19:40;15.07;;;12.93;;
60038;SDS011;45916;52.734;6.544;2022-12-19T16:21:59;15.65;;;11.90;;
60038;SDS011;45916;52.734;6.544;2022-12-19T16:24:25;17.40;;;12.80;;
60038;SDS011;45916;52.734;6.544;2022-12-19T16:26:55;15.68;;;13.48;;
60038;SDS011;45916;52.734;6.544;2022-12-19T16:29:26;16.10;;;13.60;;
60038;SDS011;45916;52.734;6.544;2022-12-19T16:31:53;20.70;;;14.90;;
60038;SDS011;45916;52.734;6.544;2022-12-19T16:34:20;16.35;;;14.55;;
60038;SDS011;45916;52.734;6.544;2022-12-19T16:36:47;17.55;;;14.48;;
60038;SDS011;45916;52.734;6.544;2022-12-19T16:39:14;17.05;;;14.85;;
60038;SDS011;45916;52.734;6.544;2022-12-19T16:41:41;17.55;;;12.13;;
60038;SDS011;45916;52.734;6.544;2022-12-19T16:44:17;17.23;;;14.25;;
60038;SDS011;45916;52.734;6.544;2022-12-19T16:46:45;15.32;;;13.68;;
60038;SDS011;45916;52.734;6.544;2022-12-19T16:49:15;19.48;;;15.35;;
60038;SDS011;45916;52.734;6.544;2022-12-19T16:51:44;17.92;;;15.55;;
60038;SDS011;45916;52.734;6.544;2022-12-19T16:54:11;20.60;;;15.55;;
60038;SDS011;45916;52.734;6.544;2022-12-19T16:56:42;19.08;;;15.85;;
60038;SDS011;45916;52.734;6.544;2022-12-19T17:05:00;17.20;;;14.50;;
60038;SDS011;45916;52.734;6.544;2022-12-19T17:07:26;17.42;;;15.63;;
60038;SDS011;45916;52.734;6.544;2022-12-19T17:09:53;19.67;;;15.48;;
60038;SDS011;45916;52.734;6.544;2022-12-19T17:12:18;18.17;;;15.95;;
60038;SDS011;45916;52.734;6.544;2022-12-19T17:14:50;20.52;;;16.58;;
60038;SDS011;45916;52.734;6.544;2022-12-19T17:17:16;20.20;;;16.02;;
60038;SDS011;45916;52.734;6.544;2022-12-19T17:19:42;17.42;;;15.02;;
60038;SDS011;45916;52.734;6.544;2022-12-19T17:22:13;19.10;;;15.13;;